createdAt,value
2022-10-12T00:03:18.064Z,59.09
2022-10-12T00:08:19.339Z,59.53
2022-10-12T00:13:20.702Z,59.42
2022-10-12T00:18:22.142Z,59.40
2022-10-12T00:23:23.377Z,59.92
2022-10-12T00:28:24.686Z,60.03
2022-10-12T00:33:28.512Z,59.53
2022-10-12T00:38:29.751Z,59.45
2022-10-12T00:43:38.978Z,59.67
2022-10-12T00:48:41.832Z,61.07
2022-10-12T00:53:48.125Z,59.81
2022-10-12T00:58:50.371Z,61.06
2022-10-12T01:03:51.788Z,60.41
2022-10-12T01:08:55.017Z,61.74
2022-10-12T01:13:57.702Z,60.05
2022-10-12T01:19:29.753Z,60.95
2022-10-12T01:24:43.174Z,60.91
2022-10-12T01:30:14.656Z,61.20
2022-10-12T01:35:27.600Z,60.66
2022-10-12T01:40:45.150Z,61.09
2022-10-12T01:45:46.478Z,60.47
2022-10-12T01:50:50.797Z,61.68
2022-10-12T01:56:00.389Z,62.14
2022-10-12T02:01:37.884Z,62.04
2022-10-12T02:06:55.464Z,62.80
2022-10-12T02:12:02.144Z,62.67
2022-10-12T02:17:06.542Z,62.21
2022-10-12T02:22:09.665Z,62.75
2022-10-12T02:27:13.529Z,62.46
2022-10-12T02:32:27.536Z,62.19
2022-10-12T02:37:36.707Z,62.67
2022-10-12T02:43:08.795Z,62.74
2022-10-12T02:48:07.125Z,62.97
2022-10-12T02:53:08.772Z,63.32
2022-10-12T02:58:10.041Z,64.42
2022-10-12T03:03:11.431Z,62.52
2022-10-12T03:08:12.822Z,63.19
2022-10-12T03:13:14.087Z,63.35
2022-10-12T03:18:15.358Z,63.59
2022-10-12T03:23:16.617Z,64.16
2022-10-12T03:28:18.083Z,64.35
2022-10-12T03:33:19.472Z,63.42
2022-10-12T03:38:21.141Z,63.97
2022-10-12T03:43:22.795Z,64.00
2022-10-12T03:48:24.073Z,63.95
2022-10-12T03:53:25.382Z,64.35
2022-10-12T03:58:26.817Z,65.78
2022-10-12T04:03:28.105Z,64.96
2022-10-12T04:08:30.579Z,64.49
2022-10-12T04:13:31.848Z,64.24
2022-10-12T04:18:33.694Z,64.22
2022-10-12T04:23:34.955Z,65.14
2022-10-12T04:28:36.290Z,64.56
2022-10-12T04:33:37.597Z,65.01
2022-10-12T04:38:38.885Z,64.47
2022-10-12T04:43:40.231Z,64.88
2022-10-12T04:48:41.483Z,65.63
2022-10-12T04:53:43.027Z,64.98
2022-10-12T04:58:44.399Z,65.42
2022-10-12T05:03:45.690Z,65.25
2022-10-12T05:08:46.955Z,65.04
2022-10-12T05:13:48.234Z,65.59
2022-10-12T05:18:49.579Z,65.71
2022-10-12T05:23:52.269Z,65.60
2022-10-12T05:28:53.536Z,65.63
2022-10-12T05:33:54.832Z,65.38
2022-10-12T05:38:56.177Z,65.34
2022-10-12T05:43:57.481Z,65.88
2022-10-12T05:48:58.958Z,65.57
2022-10-12T05:54:00.245Z,65.89
2022-10-12T05:59:01.710Z,65.98
2022-10-12T06:04:03.050Z,66.11
2022-10-12T06:09:04.327Z,67.00
2022-10-12T06:14:05.597Z,66.01
2022-10-12T06:19:07.000Z,65.49
2022-10-12T06:24:08.501Z,65.81
2022-10-12T06:29:09.781Z,65.95
2022-10-12T06:34:11.052Z,65.72
2022-10-12T06:39:12.796Z,65.74
2022-10-12T06:44:14.140Z,65.39
2022-10-12T06:49:16.991Z,65.15
2022-10-12T06:54:18.268Z,64.20
2022-10-12T06:59:22.607Z,63.76
2022-10-12T07:04:24.169Z,63.64
2022-10-12T07:09:25.397Z,62.27
2022-10-12T07:14:26.706Z,61.76
2022-10-12T07:19:27.977Z,61.57
2022-10-12T07:24:36.111Z,61.03
2022-10-12T07:29:38.365Z,60.33
2022-10-12T07:34:39.635Z,60.25
2022-10-12T07:39:41.450Z,59.30
2022-10-12T07:44:42.744Z,59.15
2022-10-12T07:49:44.043Z,59.50
2022-10-12T07:54:45.952Z,58.60
2022-10-12T07:59:47.280Z,57.68
2022-10-12T08:04:48.569Z,57.77
2022-10-12T08:09:49.894Z,58.25
2022-10-12T08:14:51.162Z,56.90
2022-10-12T08:19:52.580Z,57.23
2022-10-12T08:24:54.071Z,57.09
2022-10-12T08:29:55.694Z,57.13
2022-10-12T08:34:57.013Z,55.11
2022-10-12T08:40:02.274Z,55.11
2022-10-12T08:45:32.465Z,54.45
2022-10-12T08:50:46.227Z,54.03
2022-10-12T08:55:47.613Z,51.96
2022-10-12T09:00:53.893Z,52.25
2022-10-12T09:06:11.823Z,51.83
2022-10-12T09:11:38.087Z,50.06
2022-10-12T09:16:46.107Z,49.60
2022-10-12T09:21:49.455Z,48.91
2022-10-12T09:26:53.780Z,48.66
2022-10-12T09:32:24.161Z,47.03
2022-10-12T09:37:28.977Z,45.57
2022-10-12T09:42:32.337Z,43.59
2022-10-12T09:47:33.778Z,40.64
2022-10-12T09:52:35.068Z,35.78
2022-10-12T09:57:39.472Z,33.51
2022-10-12T10:02:49.043Z,31.11
2022-10-12T10:07:50.314Z,33.44
2022-10-12T10:12:54.353Z,34.25
2022-10-12T10:17:59.629Z,33.98
2022-10-12T10:23:03.828Z,31.22
2022-10-12T10:28:22.492Z,27.51
2022-10-12T10:33:24.785Z,24.61
2022-10-12T10:38:27.033Z,23.24
2022-10-12T10:43:31.414Z,22.91
2022-10-12T10:48:51.425Z,20.70
2022-10-12T10:53:53.139Z,19.46
2022-10-12T10:59:12.260Z,20.03
2022-10-12T11:04:21.569Z,21.51
2022-10-12T11:09:38.594Z,19.42
2022-10-12T11:14:51.225Z,17.75
2022-10-12T11:20:19.888Z,17.64
2022-10-12T11:25:30.873Z,17.23
2022-10-12T11:30:40.687Z,18.46
2022-10-12T11:35:45.329Z,18.45
2022-10-12T11:46:17.829Z,16.08
2022-10-12T11:51:19.074Z,15.89
2022-10-12T11:56:43.036Z,15.60
2022-10-12T12:01:58.083Z,15.21
2022-10-12T12:07:05.805Z,15.10
2022-10-12T12:12:18.643Z,15.81
2022-10-12T12:17:19.965Z,16.39
2022-10-12T12:22:36.568Z,17.64
2022-10-12T12:27:54.081Z,20.63
2022-10-12T12:33:15.230Z,22.64
2022-10-12T12:38:33.495Z,19.80
2022-10-12T12:43:49.880Z,21.69
2022-10-12T12:48:51.100Z,21.57
2022-10-12T12:53:57.513Z,27.77
2022-10-12T12:59:46.516Z,32.44
2022-10-12T13:05:19.374Z,35.89
2022-10-12T13:10:32.261Z,38.21
2022-10-12T13:15:49.388Z,39.56
2022-10-12T13:20:51.186Z,39.51
2022-10-12T13:25:58.949Z,40.83
2022-10-12T13:31:27.642Z,42.45
2022-10-12T13:36:32.764Z,42.74
2022-10-12T13:41:35.001Z,37.06
2022-10-12T13:46:42.077Z,32.06
2022-10-12T13:51:46.790Z,29.80
2022-10-12T13:56:54.186Z,32.70
2022-10-12T14:02:00.696Z,34.45
2022-10-12T14:07:06.352Z,39.23
2022-10-12T14:12:09.585Z,42.35
2022-10-12T14:17:29.514Z,42.83
2022-10-12T14:22:33.066Z,42.29
2022-10-12T14:27:38.058Z,43.38
2022-10-12T14:32:42.047Z,44.34
2022-10-12T14:37:43.379Z,45.59
2022-10-12T14:42:57.088Z,47.95
2022-10-12T14:47:59.900Z,47.87
2022-10-12T14:53:04.886Z,47.89
2022-10-12T14:58:08.119Z,48.76
2022-10-12T15:03:09.449Z,49.45
2022-10-12T15:08:10.764Z,49.87
2022-10-12T15:13:13.350Z,50.68
2022-10-12T15:18:14.610Z,51.09
2022-10-12T15:23:16.285Z,52.07
2022-10-12T15:28:18.230Z,52.89
2022-10-12T15:33:19.624Z,53.19
2022-10-12T15:38:21.156Z,53.05
2022-10-12T15:43:22.413Z,53.27
2022-10-12T15:48:23.726Z,54.25
2022-10-12T15:53:26.161Z,56.39
2022-10-12T15:58:27.389Z,56.47
2022-10-12T16:03:31.363Z,56.24
2022-10-12T16:08:32.736Z,57.09
2022-10-12T16:13:35.778Z,58.40
2022-10-12T16:18:39.604Z,58.22
2022-10-12T16:23:41.306Z,58.57
2022-10-12T16:28:42.994Z,59.33
2022-10-12T16:33:44.626Z,59.02
2022-10-12T16:38:45.945Z,59.68
2022-10-12T16:43:47.286Z,60.04
2022-10-12T16:48:48.542Z,59.72
2022-10-12T16:53:49.846Z,60.60
2022-10-12T16:58:52.340Z,60.42
2022-10-12T17:03:53.887Z,60.51
2022-10-12T17:08:58.536Z,60.81
2022-10-12T17:14:03.736Z,60.50
2022-10-12T17:19:05.166Z,61.17
2022-10-12T17:24:06.535Z,62.07
2022-10-12T17:29:11.135Z,62.29
2022-10-12T17:34:24.706Z,63.05
2022-10-12T17:39:29.333Z,63.34
2022-10-12T17:44:30.749Z,62.79
2022-10-12T17:49:32.357Z,62.97
2022-10-12T17:54:34.085Z,63.27
2022-10-12T17:59:35.446Z,63.46
2022-10-12T18:04:36.815Z,64.69
2022-10-12T18:09:38.098Z,64.70
2022-10-12T18:14:39.453Z,65.15
2022-10-12T18:19:40.835Z,65.54
2022-10-12T18:24:42.194Z,66.20
2022-10-12T18:29:43.822Z,66.82
2022-10-12T18:34:45.400Z,66.11
2022-10-12T18:39:46.668Z,65.87
2022-10-12T18:44:48.119Z,66.17
2022-10-12T18:49:50.029Z,66.83
2022-10-12T18:54:51.269Z,67.58
2022-10-12T18:59:53.136Z,67.75
2022-10-12T19:04:55.602Z,68.76
2022-10-12T19:09:56.856Z,68.65
2022-10-12T19:14:58.164Z,68.67
2022-10-12T19:20:00.065Z,69.02
2022-10-12T19:25:01.444Z,69.28
2022-10-12T19:30:03.715Z,69.13
2022-10-12T19:35:05.376Z,69.49
2022-10-12T19:40:07.904Z,69.79
2022-10-12T19:45:09.717Z,69.90
2022-10-12T19:50:10.979Z,70.21
2022-10-12T19:55:12.335Z,70.53
2022-10-12T20:00:14.190Z,70.49
2022-10-12T20:05:15.589Z,71.15
2022-10-12T20:10:17.082Z,71.68
2022-10-12T20:15:18.422Z,71.43
2022-10-12T20:20:21.492Z,71.91
2022-10-12T20:25:22.837Z,72.06
2022-10-12T20:30:24.126Z,72.01
2022-10-12T20:35:25.436Z,72.18
2022-10-12T20:40:27.554Z,73.19
2022-10-12T20:45:28.825Z,72.86
2022-10-12T20:50:30.111Z,73.32
2022-10-12T20:55:31.728Z,74.25
2022-10-12T21:00:33.096Z,74.11
2022-10-12T21:05:34.950Z,74.80
2022-10-12T21:10:40.020Z,74.62
2022-10-12T21:15:49.769Z,74.33
2022-10-12T21:20:59.575Z,74.37
2022-10-12T21:26:08.989Z,73.80
2022-10-12T21:31:11.400Z,74.82
2022-10-12T21:36:14.100Z,74.47
2022-10-12T21:41:17.635Z,74.62
2022-10-12T21:46:21.462Z,74.76
2022-10-12T21:51:24.149Z,75.62
2022-10-12T21:56:28.469Z,75.92
2022-10-12T22:01:37.013Z,76.17
2022-10-12T22:06:38.650Z,77.08
2022-10-12T22:11:40.097Z,77.90
2022-10-12T22:16:43.217Z,78.27
2022-10-12T22:21:46.082Z,79.13
2022-10-12T22:26:47.429Z,80.15
2022-10-12T22:31:48.705Z,80.04
2022-10-12T22:36:50.409Z,80.17
2022-10-12T22:41:51.670Z,78.53
2022-10-12T22:46:52.965Z,78.28
2022-10-12T22:51:54.402Z,78.40
2022-10-12T22:56:55.724Z,78.79
2022-10-12T23:01:57.067Z,79.22
2022-10-12T23:06:58.327Z,79.99
2022-10-12T23:11:59.616Z,80.27
2022-10-12T23:17:00.853Z,79.76
2022-10-12T23:22:02.106Z,80.70
2022-10-12T23:27:03.357Z,80.66
2022-10-12T23:32:04.706Z,80.76
2022-10-12T23:37:06.144Z,81.01
2022-10-12T23:42:07.405Z,82.02
2022-10-12T23:47:08.668Z,82.93
2022-10-12T23:52:09.886Z,82.63
2022-10-12T23:57:34.436Z,82.47
